createdAt,value
2023-06-18T00:02:09.626Z,34.60
2023-06-18T00:04:36.556Z,32.80
2023-06-18T00:07:03.565Z,31.55
2023-06-18T00:09:30.442Z,30.67
2023-06-18T00:11:57.257Z,30.58
2023-06-18T00:14:24.196Z,30.90
2023-06-18T00:16:52.256Z,31.13
2023-06-18T00:19:19.083Z,31.90
2023-06-18T00:21:46.219Z,33.30
2023-06-18T00:24:13.070Z,30.00
2023-06-18T00:26:39.893Z,27.70
2023-06-18T00:29:06.808Z,30.73
2023-06-18T00:31:33.952Z,27.67
2023-06-18T00:34:08.355Z,28.15
2023-06-18T00:36:40.072Z,27.52
2023-06-18T00:39:08.223Z,27.52
2023-06-18T00:41:35.266Z,28.40
2023-06-18T00:44:02.151Z,29.00
2023-06-18T00:46:32.160Z,29.35
2023-06-18T00:48:59.069Z,30.75
2023-06-18T00:51:27.802Z,29.77
2023-06-18T00:53:55.489Z,28.20
2023-06-18T00:56:23.346Z,29.90
2023-06-18T00:58:50.143Z,29.45
2023-06-18T01:01:17.041Z,30.98
2023-06-18T01:03:49.066Z,29.50
2023-06-18T01:06:18.512Z,29.53
2023-06-18T01:08:50.130Z,31.17
2023-06-18T01:11:19.861Z,29.05
2023-06-18T01:13:46.889Z,31.50
2023-06-18T01:16:14.840Z,30.25
2023-06-18T01:18:48.236Z,30.10
2023-06-18T01:21:19.927Z,28.30
2023-06-18T01:24:05.632Z,26.73
2023-06-18T01:26:33.201Z,25.40
2023-06-18T01:29:00.427Z,28.58
2023-06-18T01:31:29.413Z,28.60
2023-06-18T01:33:56.633Z,29.25
2023-06-18T01:36:40.915Z,29.77
2023-06-18T01:39:30.381Z,27.17
2023-06-18T01:42:01.894Z,28.45
2023-06-18T01:44:31.150Z,29.20
2023-06-18T01:46:57.925Z,29.95
2023-06-18T01:49:24.762Z,28.65
2023-06-18T01:51:51.862Z,26.80
2023-06-18T01:54:19.088Z,30.38
2023-06-18T01:56:45.980Z,29.40
2023-06-18T01:59:13.100Z,29.77
2023-06-18T02:01:42.745Z,29.95
2023-06-18T02:04:09.563Z,29.52
2023-06-18T02:06:36.584Z,32.22
2023-06-18T02:09:03.541Z,30.73
2023-06-18T02:11:30.483Z,31.67
2023-06-18T02:13:57.301Z,29.90
2023-06-18T02:16:24.149Z,29.98
2023-06-18T02:18:51.001Z,27.30
2023-06-18T02:21:17.816Z,28.43
2023-06-18T02:23:44.574Z,26.52
2023-06-18T02:26:11.406Z,27.55
2023-06-18T02:28:39.125Z,27.60
2023-06-18T02:31:08.037Z,23.17
2023-06-18T02:33:34.907Z,26.20
2023-06-18T02:36:01.796Z,25.85
2023-06-18T02:38:29.296Z,27.60
2023-06-18T02:40:57.018Z,25.65
2023-06-18T02:43:23.813Z,28.08
2023-06-18T02:45:52.541Z,28.40
2023-06-18T02:48:19.540Z,25.08
2023-06-18T02:50:46.336Z,25.48
2023-06-18T02:53:13.125Z,26.48
2023-06-18T02:55:42.477Z,28.67
2023-06-18T02:58:20.802Z,28.73
2023-06-18T03:00:47.854Z,27.60
2023-06-18T03:03:15.808Z,28.67
2023-06-18T03:05:42.722Z,24.35
2023-06-18T03:08:09.596Z,23.05
2023-06-18T03:10:36.562Z,19.57
2023-06-18T03:13:03.383Z,19.42
2023-06-18T03:15:30.143Z,19.95
2023-06-18T03:17:56.991Z,19.20
2023-06-18T03:20:25.013Z,20.00
2023-06-18T03:22:51.975Z,20.73
2023-06-18T03:25:18.768Z,16.85
2023-06-18T03:27:45.639Z,17.75
2023-06-18T03:30:13.226Z,18.35
2023-06-18T03:32:40.085Z,18.48
2023-06-18T03:35:07.442Z,19.33
2023-06-18T03:37:34.364Z,16.63
2023-06-18T03:40:02.540Z,16.55
2023-06-18T03:42:29.360Z,16.02
2023-06-18T03:44:56.226Z,15.68
2023-06-18T03:47:23.133Z,17.03
2023-06-18T03:49:50.041Z,15.43
2023-06-18T03:52:16.838Z,14.95
2023-06-18T03:54:43.681Z,15.57
2023-06-18T03:57:10.991Z,15.35
2023-06-18T03:59:37.818Z,14.93
2023-06-18T04:02:04.874Z,13.52
2023-06-18T04:04:31.744Z,13.23
2023-06-18T04:06:59.157Z,15.05
2023-06-18T04:09:26.075Z,13.93
2023-06-18T04:11:54.257Z,14.27
2023-06-18T04:14:21.338Z,13.15
2023-06-18T04:16:48.082Z,13.13
2023-06-18T04:19:14.980Z,12.60
2023-06-18T04:21:41.780Z,12.75
2023-06-18T04:24:08.606Z,15.17
2023-06-18T04:26:35.584Z,15.13
2023-06-18T04:29:02.385Z,15.48
2023-06-18T04:31:29.221Z,13.32
2023-06-18T04:33:56.055Z,14.15
2023-06-18T04:36:22.884Z,11.00
2023-06-18T04:38:49.668Z,11.52
2023-06-18T04:41:16.544Z,12.95
2023-06-18T04:43:43.320Z,11.63
2023-06-18T04:46:10.215Z,11.38
2023-06-18T04:48:37.047Z,11.53
2023-06-18T04:51:04.019Z,10.55
2023-06-18T04:53:30.821Z,11.02
2023-06-18T04:55:57.745Z,9.13
2023-06-18T04:58:25.662Z,10.20
2023-06-18T05:00:53.454Z,10.23
2023-06-18T05:03:20.496Z,9.95
2023-06-18T05:05:47.466Z,9.48
2023-06-18T05:08:14.341Z,9.43
2023-06-18T05:10:41.238Z,9.60
2023-06-18T05:13:08.043Z,8.73
2023-06-18T05:15:34.948Z,8.50
2023-06-18T05:18:02.088Z,9.55
2023-06-18T05:20:29.148Z,11.23
2023-06-18T05:22:55.990Z,9.60
2023-06-18T05:25:22.829Z,10.50
2023-06-18T05:27:49.656Z,8.15
2023-06-18T05:30:16.611Z,9.52
2023-06-18T05:32:43.503Z,8.27
2023-06-18T05:35:10.767Z,9.25
2023-06-18T05:37:37.608Z,9.37
2023-06-18T05:40:08.266Z,8.60
2023-06-18T05:42:36.214Z,8.88
2023-06-18T05:45:03.888Z,10.15
2023-06-18T05:47:31.088Z,8.20
2023-06-18T05:49:58.145Z,8.53
2023-06-18T05:52:25.005Z,8.05
2023-06-18T05:54:51.826Z,8.10
2023-06-18T05:57:18.656Z,7.68
2023-06-18T05:59:48.561Z,7.63
2023-06-18T06:02:15.529Z,10.03
2023-06-18T06:04:43.263Z,7.65
2023-06-18T06:07:11.753Z,9.15
2023-06-18T06:09:38.547Z,7.28
2023-06-18T06:12:05.590Z,7.18
2023-06-18T06:14:32.400Z,9.03
2023-06-18T06:16:59.404Z,7.10
2023-06-18T06:19:26.892Z,7.65
2023-06-18T06:21:53.772Z,7.80
2023-06-18T06:24:20.764Z,6.18
2023-06-18T06:26:47.689Z,7.60
2023-06-18T06:29:14.643Z,6.90
2023-06-18T06:31:41.803Z,7.15
2023-06-18T06:34:08.746Z,8.32
2023-06-18T06:36:37.247Z,10.45
2023-06-18T06:39:04.405Z,7.53
2023-06-18T06:41:31.326Z,8.55
2023-06-18T06:43:58.148Z,7.38
2023-06-18T06:46:25.110Z,7.05
2023-06-18T06:48:52.034Z,7.20
2023-06-18T06:51:18.855Z,7.40
2023-06-18T06:53:48.110Z,7.43
2023-06-18T06:58:42.735Z,6.47
2023-06-18T07:01:09.523Z,9.15
2023-06-18T07:03:37.109Z,6.43
2023-06-18T07:06:07.521Z,7.43
2023-06-18T07:08:34.592Z,6.93
2023-06-18T07:11:01.696Z,6.93
2023-06-18T07:13:28.547Z,8.15
2023-06-18T07:15:55.405Z,8.60
2023-06-18T07:18:22.302Z,7.63
2023-06-18T07:20:49.143Z,7.32
2023-06-18T07:23:16.041Z,6.85
2023-06-18T07:25:42.991Z,7.88
2023-06-18T07:28:09.812Z,7.47
2023-06-18T07:30:36.703Z,8.45
2023-06-18T07:33:03.665Z,8.57
2023-06-18T07:35:30.604Z,7.47
2023-06-18T07:37:57.455Z,6.75
2023-06-18T07:40:24.523Z,7.17
2023-06-18T07:42:51.563Z,13.18
2023-06-18T07:45:18.474Z,7.32
2023-06-18T07:47:45.608Z,8.82
2023-06-18T07:50:13.142Z,6.25
2023-06-18T07:52:39.940Z,6.70
2023-06-18T07:55:07.476Z,7.22
2023-06-18T07:57:34.344Z,7.03
2023-06-18T08:00:01.285Z,10.88
2023-06-18T08:02:28.263Z,7.55
2023-06-18T08:04:55.255Z,7.13
2023-06-18T08:07:22.167Z,6.65
2023-06-18T08:09:49.053Z,7.57
2023-06-18T08:12:16.279Z,7.68
2023-06-18T08:14:46.706Z,7.10
2023-06-18T08:17:17.225Z,9.27
2023-06-18T08:19:46.479Z,7.07
2023-06-18T08:22:13.757Z,7.10
2023-06-18T08:24:40.917Z,7.45
2023-06-18T08:27:08.171Z,7.50
2023-06-18T08:29:35.125Z,9.77
2023-06-18T08:32:06.019Z,7.65
2023-06-18T08:34:33.565Z,8.13
2023-06-18T08:37:01.146Z,8.13
2023-06-18T08:39:28.184Z,7.45
2023-06-18T08:41:56.048Z,7.37
2023-06-18T08:44:24.733Z,7.18
2023-06-18T08:46:51.600Z,8.00
2023-06-18T08:49:18.722Z,8.98
2023-06-18T08:51:45.950Z,7.35
2023-06-18T08:54:12.768Z,7.27
2023-06-18T08:56:50.831Z,8.63
2023-06-18T08:59:18.108Z,8.05
2023-06-18T09:01:44.908Z,7.93
2023-06-18T09:04:12.031Z,9.02
2023-06-18T09:06:38.912Z,7.80
2023-06-18T09:09:05.865Z,12.48
2023-06-18T09:11:37.359Z,8.20
2023-06-18T09:14:05.014Z,7.45
2023-06-18T09:16:32.011Z,7.32
2023-06-18T09:18:58.886Z,7.90
2023-06-18T09:21:41.854Z,7.68
2023-06-18T09:24:10.666Z,8.43
2023-06-18T09:26:37.613Z,7.00
2023-06-18T09:29:10.590Z,7.05
2023-06-18T09:31:38.935Z,7.60
2023-06-18T09:34:13.348Z,15.45
2023-06-18T09:36:44.119Z,9.45
2023-06-18T09:39:17.469Z,7.88
2023-06-18T09:41:45.530Z,7.65
2023-06-18T09:44:16.215Z,10.80
2023-06-18T09:46:47.549Z,14.07
2023-06-18T09:49:18.330Z,7.65
2023-06-18T09:51:45.381Z,8.20
2023-06-18T09:54:12.334Z,8.00
2023-06-18T09:56:39.531Z,10.27
2023-06-18T09:59:06.408Z,7.70
2023-06-18T10:01:49.527Z,7.38
2023-06-18T10:04:18.334Z,8.32
2023-06-18T10:06:54.490Z,8.98
2023-06-18T10:09:21.707Z,9.60
2023-06-18T10:11:50.341Z,7.15
2023-06-18T10:14:18.067Z,11.55
2023-06-18T10:16:49.898Z,9.80
2023-06-18T10:19:20.862Z,101.22
2023-06-18T10:21:51.098Z,13.57
2023-06-18T10:24:19.067Z,14.52
2023-06-18T10:26:46.966Z,16.52
2023-06-18T10:29:13.861Z,13.65
2023-06-18T10:31:40.852Z,30.60
2023-06-18T10:34:07.753Z,22.10
2023-06-18T10:36:34.609Z,19.63
2023-06-18T10:39:02.384Z,12.45
2023-06-18T10:41:29.200Z,9.13
2023-06-18T10:43:56.286Z,18.63
2023-06-18T10:46:23.331Z,22.73
2023-06-18T10:49:18.648Z,16.30
2023-06-18T10:52:06.363Z,9.52
2023-06-18T10:54:35.163Z,16.10
2023-06-18T10:57:03.052Z,14.15
2023-06-18T10:59:45.996Z,9.57
2023-06-18T11:02:13.639Z,11.50
2023-06-18T11:04:41.272Z,7.93
2023-06-18T11:07:25.013Z,6.93
2023-06-18T11:09:53.427Z,10.50
2023-06-18T11:12:30.567Z,6.63
2023-06-18T11:15:23.926Z,8.23
2023-06-18T11:17:54.950Z,7.28
2023-06-18T11:20:23.883Z,8.27
2023-06-18T11:22:57.247Z,7.70
2023-06-18T11:25:25.789Z,6.70
2023-06-18T11:27:54.836Z,7.60
2023-06-18T11:30:21.888Z,6.80
2023-06-18T11:32:48.953Z,43.20
2023-06-18T11:35:16.167Z,15.85
2023-06-18T11:37:43.828Z,16.03
2023-06-18T11:40:11.060Z,16.67
2023-06-18T11:42:41.335Z,15.25
2023-06-18T11:45:08.695Z,10.40
2023-06-18T11:47:35.933Z,8.15
2023-06-18T11:50:08.552Z,7.20
2023-06-18T11:52:37.500Z,7.32
2023-06-18T11:55:05.479Z,6.68
2023-06-18T11:57:32.868Z,6.22
2023-06-18T12:00:00.409Z,6.35
2023-06-18T12:02:28.503Z,6.50
2023-06-18T12:05:05.147Z,6.30
2023-06-18T12:07:32.270Z,6.63
2023-06-18T12:10:00.868Z,7.45
2023-06-18T12:12:42.886Z,16.05
2023-06-18T12:15:18.222Z,6.50
2023-06-18T12:17:56.034Z,27.23
2023-06-18T12:20:29.118Z,10.05
2023-06-18T12:23:00.028Z,6.82
2023-06-18T12:25:29.259Z,11.00
2023-06-18T12:27:56.854Z,8.40
2023-06-18T12:30:49.664Z,8.30
2023-06-18T12:33:16.635Z,8.40
2023-06-18T12:35:58.026Z,6.25
2023-06-18T12:38:25.533Z,7.50
2023-06-18T12:41:00.489Z,6.67
2023-06-18T12:43:27.392Z,12.15
2023-06-18T12:45:54.311Z,9.63
2023-06-18T12:48:26.025Z,7.22
2023-06-18T12:50:54.052Z,8.32
2023-06-18T12:53:23.549Z,7.20
2023-06-18T12:55:55.202Z,9.35
2023-06-18T12:58:24.159Z,8.73
2023-06-18T13:00:51.877Z,10.75
2023-06-18T13:03:19.311Z,7.70
2023-06-18T13:05:48.086Z,7.53
2023-06-18T13:08:20.135Z,8.82
2023-06-18T13:10:52.049Z,7.43
2023-06-18T13:13:19.433Z,7.85
2023-06-18T13:15:50.376Z,6.60
2023-06-18T13:18:20.191Z,9.50
2023-06-18T13:20:47.905Z,8.80
2023-06-18T13:23:15.132Z,8.15
2023-06-18T13:25:42.441Z,8.73
2023-06-18T13:28:09.596Z,7.60
2023-06-18T13:30:36.807Z,7.53
2023-06-18T13:33:03.831Z,8.55
2023-06-18T13:35:34.145Z,8.73
2023-06-18T13:38:01.263Z,9.63
2023-06-18T13:40:28.950Z,7.63
2023-06-18T13:42:55.783Z,8.07
2023-06-18T13:45:22.728Z,9.57
2023-06-18T13:47:49.779Z,8.68
2023-06-18T13:50:17.081Z,10.43
2023-06-18T13:52:43.963Z,11.85
2023-06-18T13:55:10.900Z,10.30
2023-06-18T13:57:38.324Z,9.80
2023-06-18T14:00:09.060Z,11.25
2023-06-18T14:02:36.085Z,9.27
2023-06-18T14:05:03.149Z,10.10
2023-06-18T14:07:31.682Z,9.23
2023-06-18T14:09:58.720Z,10.48
2023-06-18T14:12:28.170Z,10.02
2023-06-18T14:14:56.213Z,15.70
2023-06-18T14:17:27.246Z,9.15
2023-06-18T14:19:55.359Z,9.57
2023-06-18T14:22:22.314Z,11.48
2023-06-18T14:24:49.342Z,11.77
2023-06-18T14:27:16.505Z,10.70
2023-06-18T14:29:43.440Z,9.15
2023-06-18T14:32:10.390Z,8.73
2023-06-18T14:34:37.201Z,9.10
2023-06-18T14:37:04.210Z,10.20
2023-06-18T14:39:31.041Z,10.60
2023-06-18T14:41:57.837Z,8.95
2023-06-18T14:44:28.213Z,12.17
2023-06-18T14:46:55.244Z,11.07
2023-06-18T14:49:22.117Z,8.98
2023-06-18T14:51:49.054Z,9.63
2023-06-18T14:54:17.380Z,9.45
2023-06-18T14:56:47.338Z,9.10
2023-06-18T14:59:14.423Z,9.23
2023-06-18T15:01:41.390Z,11.32
2023-06-18T15:04:09.229Z,9.45
2023-06-18T15:06:36.984Z,9.20
2023-06-18T15:09:04.863Z,9.03
2023-06-18T15:11:31.960Z,9.23
2023-06-18T15:13:58.962Z,9.32
2023-06-18T15:16:26.367Z,9.40
2023-06-18T15:18:53.576Z,10.73
2023-06-18T15:21:20.844Z,10.00
2023-06-18T15:23:47.656Z,10.35
2023-06-18T15:26:21.295Z,9.85
2023-06-18T15:28:53.133Z,10.13
2023-06-18T15:31:20.081Z,8.93
2023-06-18T15:33:51.081Z,11.60
2023-06-18T15:36:18.073Z,9.77
2023-06-18T15:38:47.333Z,11.65
2023-06-18T15:41:14.233Z,9.50
2023-06-18T15:43:41.164Z,10.55
2023-06-18T15:46:08.080Z,9.33
2023-06-18T15:48:34.981Z,9.10
2023-06-18T15:51:01.976Z,10.63
2023-06-18T15:53:29.010Z,10.10
2023-06-18T15:55:56.623Z,10.10
2023-06-18T15:58:23.509Z,11.77
2023-06-18T16:00:50.922Z,9.07
2023-06-18T16:03:17.870Z,10.45
2023-06-18T16:05:45.070Z,11.18
2023-06-18T16:08:12.181Z,11.70
2023-06-18T16:10:39.128Z,10.43
2023-06-18T16:13:07.177Z,10.30
2023-06-18T16:15:34.127Z,9.82
2023-06-18T16:18:10.451Z,9.77
2023-06-18T16:20:38.631Z,10.88
2023-06-18T16:23:05.711Z,10.40
2023-06-18T16:25:32.604Z,11.10
2023-06-18T16:28:00.093Z,10.57
2023-06-18T16:30:30.672Z,9.82
2023-06-18T16:33:00.004Z,8.93
2023-06-18T16:35:26.982Z,9.17
2023-06-18T16:37:54.450Z,9.30
2023-06-18T16:40:21.951Z,10.10
2023-06-18T16:42:48.976Z,10.82
2023-06-18T16:45:16.052Z,13.13
2023-06-18T16:47:43.107Z,10.40
2023-06-18T16:50:10.528Z,8.98
2023-06-18T16:52:37.444Z,9.10
2023-06-18T16:55:06.394Z,8.63
2023-06-18T16:57:33.494Z,9.82
2023-06-18T17:00:00.356Z,9.80
2023-06-18T17:02:27.533Z,10.43
2023-06-18T17:04:54.497Z,9.10
2023-06-18T17:07:21.625Z,8.60
2023-06-18T17:09:48.696Z,10.60
2023-06-18T17:12:15.606Z,8.13
2023-06-18T17:14:42.494Z,8.52
2023-06-18T17:17:09.584Z,8.95
2023-06-18T17:19:44.147Z,9.55
2023-06-18T17:22:13.409Z,10.13
2023-06-18T17:24:40.498Z,10.47
2023-06-18T17:27:07.799Z,10.60
2023-06-18T17:29:34.776Z,10.32
2023-06-18T17:32:03.532Z,9.35
2023-06-18T17:34:30.665Z,9.95
2023-06-18T17:36:57.646Z,11.10
2023-06-18T17:39:28.956Z,12.88
2023-06-18T17:41:55.999Z,14.75
2023-06-18T17:44:22.952Z,11.35
2023-06-18T17:46:50.199Z,11.43
2023-06-18T17:49:17.280Z,9.43
2023-06-18T17:51:44.732Z,9.90
2023-06-18T17:54:14.114Z,12.02
2023-06-18T17:56:41.209Z,11.70
2023-06-18T17:59:09.301Z,10.80
2023-06-18T18:01:36.372Z,13.13
2023-06-18T18:04:03.390Z,12.30
2023-06-18T18:06:30.364Z,14.48
2023-06-18T18:08:57.399Z,12.80
2023-06-18T18:11:28.698Z,14.15
2023-06-18T18:13:58.729Z,22.43
2023-06-18T18:16:25.605Z,13.30
2023-06-18T18:18:53.042Z,17.17
2023-06-18T18:21:19.996Z,12.98
2023-06-18T18:23:46.943Z,17.00
2023-06-18T18:26:14.635Z,13.13
2023-06-18T18:28:41.630Z,14.40
2023-06-18T18:31:09.089Z,17.42
2023-06-18T18:33:35.972Z,15.05
2023-06-18T18:36:05.171Z,16.23
2023-06-18T18:38:32.036Z,12.90
2023-06-18T18:40:58.891Z,17.02
2023-06-18T18:43:26.351Z,14.45
2023-06-18T18:45:53.271Z,12.60
2023-06-18T18:48:20.958Z,13.70
2023-06-18T18:50:47.865Z,13.17
2023-06-18T18:53:14.898Z,14.90
2023-06-18T18:55:41.769Z,14.75
2023-06-18T18:58:08.664Z,13.57
2023-06-18T19:00:35.727Z,13.23
2023-06-18T19:03:02.880Z,14.23
2023-06-18T19:05:29.885Z,13.45
2023-06-18T19:07:56.832Z,18.50
2023-06-18T19:10:24.842Z,10.88
2023-06-18T19:12:54.217Z,16.77
2023-06-18T19:15:21.141Z,14.70
2023-06-18T19:17:48.081Z,13.52
2023-06-18T19:20:15.183Z,17.33
2023-06-18T19:22:42.142Z,14.88
2023-06-18T19:25:09.644Z,15.57
2023-06-18T19:27:36.522Z,14.40
2023-06-18T19:30:04.029Z,13.18
2023-06-18T19:32:30.926Z,13.82
2023-06-18T19:34:57.919Z,12.15
2023-06-18T19:37:24.732Z,12.48
2023-06-18T19:39:51.628Z,12.23
2023-06-18T19:42:18.652Z,12.98
2023-06-18T19:44:45.973Z,12.13
2023-06-18T19:47:12.841Z,12.15
2023-06-18T19:49:39.676Z,12.48
2023-06-18T19:52:07.404Z,12.43
2023-06-18T19:54:35.528Z,16.27
2023-06-18T19:57:02.541Z,16.73
2023-06-18T19:59:29.499Z,14.52
2023-06-18T20:01:56.430Z,14.63
2023-06-18T20:04:23.376Z,16.57
2023-06-18T20:06:50.305Z,13.23
2023-06-18T20:09:17.329Z,16.55
2023-06-18T20:11:44.231Z,16.98
2023-06-18T20:14:13.265Z,15.07
2023-06-18T20:16:40.421Z,14.60
2023-06-18T20:19:07.487Z,13.77
2023-06-18T20:21:34.468Z,23.20
2023-06-18T20:24:01.832Z,19.98
2023-06-18T20:26:28.796Z,17.58
2023-06-18T20:28:55.746Z,15.87
2023-06-18T20:31:22.567Z,16.48
2023-06-18T20:33:49.675Z,17.20
2023-06-18T20:36:17.455Z,17.00
2023-06-18T20:38:44.397Z,16.45
2023-06-18T20:41:11.826Z,19.13
2023-06-18T20:43:39.463Z,18.10
2023-06-18T20:46:06.419Z,19.50
2023-06-18T20:48:33.607Z,16.60
2023-06-18T20:51:05.002Z,18.05
2023-06-18T20:53:32.952Z,17.57
2023-06-18T20:56:00.888Z,21.42
2023-06-18T20:58:27.958Z,19.17
2023-06-18T21:00:54.960Z,20.90
2023-06-18T21:03:24.571Z,19.58
2023-06-18T21:05:51.992Z,22.07
2023-06-18T21:08:19.261Z,23.58
2023-06-18T21:10:46.275Z,19.55
2023-06-18T21:13:13.117Z,22.30
2023-06-18T21:15:40.112Z,19.88
2023-06-18T21:18:07.400Z,18.87
2023-06-18T21:20:34.414Z,24.08
2023-06-18T21:23:01.225Z,27.00
2023-06-18T21:25:28.150Z,22.65
2023-06-18T21:27:58.048Z,25.10
2023-06-18T21:30:25.655Z,24.27
2023-06-18T21:32:53.580Z,22.05
2023-06-18T21:35:20.438Z,19.05
2023-06-18T21:37:47.403Z,24.67
2023-06-18T21:40:14.889Z,20.80
2023-06-18T21:42:42.463Z,22.97
2023-06-18T21:45:09.567Z,20.33
2023-06-18T21:47:36.556Z,20.52
2023-06-18T21:50:03.750Z,21.98
2023-06-18T21:52:30.701Z,21.95
2023-06-18T21:54:57.666Z,20.03
2023-06-18T21:57:24.642Z,19.90
2023-06-18T21:59:51.730Z,20.60
2023-06-18T22:02:18.792Z,21.58
2023-06-18T22:04:45.749Z,18.85
2023-06-18T22:07:13.116Z,17.93
2023-06-18T22:09:40.050Z,20.33
2023-06-18T22:12:07.323Z,19.25
2023-06-18T22:14:34.951Z,22.38
2023-06-18T22:17:01.915Z,19.58
2023-06-18T22:19:28.784Z,17.60
2023-06-18T22:21:55.642Z,20.52
2023-06-18T22:24:22.604Z,19.63
2023-06-18T22:26:53.698Z,20.90
2023-06-18T22:29:22.408Z,19.05
2023-06-18T22:31:52.882Z,19.97
2023-06-18T22:34:32.341Z,18.58
2023-06-18T22:37:06.872Z,18.98
2023-06-18T22:39:33.963Z,20.98
2023-06-18T22:42:01.012Z,18.60
2023-06-18T22:44:27.898Z,20.10
2023-06-18T22:46:54.786Z,18.90
2023-06-18T22:49:21.711Z,17.55
2023-06-18T22:51:54.904Z,17.83
2023-06-18T22:54:21.785Z,20.77
2023-06-18T22:56:48.663Z,18.20
2023-06-18T22:59:15.587Z,19.83
2023-06-18T23:01:42.483Z,18.13
2023-06-18T23:04:09.417Z,19.55
2023-06-18T23:06:36.391Z,16.75
2023-06-18T23:09:03.671Z,18.73
2023-06-18T23:11:30.557Z,19.80
2023-06-18T23:13:57.461Z,19.48
2023-06-18T23:16:24.373Z,22.17
2023-06-18T23:18:52.418Z,20.38
2023-06-18T23:21:19.400Z,22.27
2023-06-18T23:23:46.339Z,21.65
2023-06-18T23:26:13.530Z,20.02
2023-06-18T23:28:40.561Z,22.30
2023-06-18T23:31:09.205Z,22.73
2023-06-18T23:33:36.200Z,24.43
2023-06-18T23:36:03.491Z,20.90
2023-06-18T23:38:30.501Z,21.63
2023-06-18T23:40:57.403Z,21.15
2023-06-18T23:43:24.253Z,23.55
2023-06-18T23:45:51.246Z,23.73
2023-06-18T23:48:18.145Z,24.50
2023-06-18T23:50:45.066Z,23.40
2023-06-18T23:53:11.969Z,21.90
2023-06-18T23:55:39.021Z,26.25
2023-06-18T23:58:05.916Z,23.27
